Time;durP1;ratioP1;P1;durP2;ratioP2;P2;SDS_P1;SDS_P2;PMS_P1;PMS_P2;Temp;Humidity;BMP_temperature;BMP_pressure;BME280_temperature;BME280_humidity;BME280_pressure;Samples;Min_cycle;Max_cycle;Signal;HPM_P1;HPM_P2
2021/08/22 00:02:00;;;;;;;10.70;9.80;;;;;;;17.40;82.13;99602.59;4866492;29;20235;-88
2021/08/22 00:04:29;;;;;;;10.10;9.20;;;;;;;17.33;81.95;99594.69;4882284;29;20228;-89
2021/08/22 00:06:56;;;;;;;10.80;9.90;;;;;;;17.38;82.57;99600.13;4866640;29;20236;-88
2021/08/22 00:09:23;;;;;;;10.67;9.67;;;;;;;17.32;82.48;99598.47;4881919;29;20575;-88
2021/08/22 00:11:50;;;;;;;10.23;9.33;;;;;;;17.27;82.52;99584.09;4882096;29;20536;-88
2021/08/22 00:14:17;;;;;;;10.40;9.50;;;;;;;17.34;82.84;99596.31;4866489;29;20287;-88
2021/08/22 00:16:43;;;;;;;11.20;10.10;;;;;;;17.25;82.69;99581.66;4882855;29;20243;-89
2021/08/22 00:19:11;;;;;;;10.57;9.67;;;;;;;17.25;82.82;99589.78;4881123;29;20658;-89
2021/08/22 00:21:38;;;;;;;10.10;9.30;;;;;;;17.24;82.93;99593.56;4851208;29;20271;-88
2021/08/22 00:24:05;;;;;;;11.10;10.20;;;;;;;17.25;82.97;99595.19;4881581;29;20232;-88
2021/08/22 00:26:31;;;;;;;10.73;9.73;;;;;;;17.23;83.19;99593.81;4881963;29;20271;-89
2021/08/22 00:28:58;;;;;;;10.50;9.43;;;;;;;17.22;82.98;99594.94;4881662;29;20266;-88
2021/08/22 00:31:25;;;;;;;10.93;9.83;;;;;;;17.20;83.19;99588.94;4866501;29;20310;-89
2021/08/22 00:33:52;;;;;;;11.40;10.40;;;;;;;17.16;83.33;99592.19;4881628;29;20239;-89
2021/08/22 00:36:18;;;;;;;11.03;10.03;;;;;;;17.23;83.51;99596.53;4865819;29;20703;-89
2021/08/22 00:38:47;;;;;;;10.93;9.93;;;;;;;17.22;83.63;99603.84;4881739;29;20231;-88
2021/08/22 00:41:14;;;;;;;11.37;10.47;;;;;;;17.14;83.55;99582.69;4897059;29;20232;-88
2021/08/22 00:43:43;;;;;;;11.63;10.47;;;;;;;17.21;83.84;99601.41;4881280;29;20327;-88
2021/08/22 00:46:10;;;;;;;11.27;10.37;;;;;;;17.13;83.75;99594.59;4865998;29;20235;-89
2021/08/22 00:48:39;;;;;;;11.50;10.50;;;;;;;17.09;84.00;99582.66;4866276;29;20246;-89
2021/08/22 00:51:06;;;;;;;11.90;10.87;;;;;;;17.08;83.99;99581.84;4866078;29;20283;-88
2021/08/22 00:53:33;;;;;;;11.30;10.30;;;;;;;17.00;83.89;99581.53;4865996;29;20261;-89
2021/08/22 00:56:03;;;;;;;11.57;10.57;;;;;;;17.07;83.96;99587.53;4866037;29;20257;-89
2021/08/22 00:58:32;;;;;;;11.63;10.63;;;;;;;17.09;84.03;99596.19;4880778;29;20254;-89
2021/08/22 01:00:59;;;;;;;11.87;10.83;;;;;;;17.05;83.86;99590.50;4866018;29;20318;-89
2021/08/22 01:03:40;;;;;;;11.43;10.43;;;;;;;17.01;83.78;99583.97;4865726;29;20235;-89
2021/08/22 01:06:19;;;;;;;11.53;10.53;;;;;;;17.05;83.98;99597.78;4880679;29;20239;-89
2021/08/22 01:08:54;;;;;;;11.63;10.73;;;;;;;17.01;84.20;99597.50;4881174;29;20235;-88
2021/08/22 01:11:24;;;;;;;12.03;11.00;;;;;;;17.00;84.17;99595.88;4881331;29;20298;-89
2021/08/22 01:13:55;;;;;;;10.83;9.73;;;;;;;17.00;84.24;99587.75;4865856;29;20299;-89
2021/08/22 01:16:23;;;;;;;11.57;10.53;;;;;;;16.94;84.03;99577.16;4896237;29;20632;-89
2021/08/22 01:18:52;;;;;;;12.23;11.03;;;;;;;17.02;84.08;99599.16;4865598;29;20236;-90
2021/08/22 01:21:20;;;;;;;10.70;9.80;;;;;;;16.93;84.21;99583.66;4865451;29;20235;-88
2021/08/22 01:23:53;;;;;;;11.70;10.70;;;;;;;17.01;84.29;99592.09;4865575;29;20239;-88
2021/08/22 01:26:25;;;;;;;11.97;10.90;;;;;;;16.97;84.38;99590.19;4880595;29;20239;-88
2021/08/22 01:28:52;;;;;;;11.77;10.77;;;;;;;16.91;84.47;99583.91;4865253;29;20231;-89
2021/08/22 01:31:24;;;;;;;11.57;10.57;;;;;;;16.91;84.53;99585.81;4880857;29;20687;-89
2021/08/22 01:33:53;;;;;;;11.07;10.07;;;;;;;16.89;84.64;99585.28;4865640;29;20235;-88
2021/08/22 01:36:21;;;;;;;11.57;10.50;;;;;;;16.84;84.74;99575.22;4880217;29;20259;-88
2021/08/22 01:38:49;;;;;;;11.87;10.77;;;;;;;16.73;84.78;99565.41;4865398;29;20703;-88
2021/08/22 01:41:17;;;;;;;11.47;10.37;;;;;;;16.81;84.80;99572.22;4865285;29;20235;-88
2021/08/22 01:43:45;;;;;;;11.63;10.63;;;;;;;16.79;84.84;99577.09;4850077;29;20262;-88
2021/08/22 01:46:16;;;;;;;11.30;10.20;;;;;;;16.82;84.90;99573.84;4865437;29;20639;-89
2021/08/22 01:48:44;;;;;;;11.50;10.43;;;;;;;16.81;84.90;99575.72;4879956;29;20244;-88
2021/08/22 01:51:11;;;;;;;12.43;10.70;;;;;;;16.82;84.81;99579.25;4865309;29;20322;-88
2021/08/22 01:53:38;;;;;;;10.50;9.60;;;;;;;16.83;84.73;99578.19;4880358;29;20235;-89
2021/08/22 01:56:05;;;;;;;10.73;9.83;;;;;;;16.81;84.52;99583.84;4880058;29;20541;-89
2021/08/22 01:58:31;;;;;;;12.30;11.10;;;;;;;16.77;84.77;99569.22;4864540;29;20735;-89
2021/08/22 02:00:58;;;;;;;11.27;10.37;;;;;;;16.74;84.64;99569.75;4880323;29;20247;-89
2021/08/22 02:03:49;;;;;;;11.60;10.60;;;;;;;16.82;84.73;99581.97;4865092;29;20603;-88
2021/08/22 02:06:23;;;;;;;10.87;9.90;;;;;;;16.72;84.60;99566.47;4877292;29;20666;-89
2021/08/22 02:08:54;;;;;;;11.27;10.20;;;;;;;16.72;84.68;99566.47;4880313;29;20248;-89
2021/08/22 02:11:27;;;;;;;10.73;9.90;;;;;;;16.72;84.63;99574.59;4880010;29;20258;-90
2021/08/22 02:13:54;;;;;;;10.83;9.93;;;;;;;16.66;84.50;99564.81;4880467;29;20240;-88
2021/08/22 02:16:25;;;;;;;11.43;10.43;;;;;;;16.66;84.84;99579.16;4864645;29;20247;-88
2021/08/22 02:18:52;;;;;;;11.47;10.57;;;;;;;16.65;84.76;99574.03;4865013;29;20235;-89
2021/08/22 02:21:20;;;;;;;10.97;10.10;;;;;;;16.62;84.80;99578.03;4864898;29;20267;-89
2021/08/22 02:23:52;;;;;;;11.87;10.67;;;;;;;16.56;84.60;99568.22;4864745;29;20260;-90
2021/08/22 02:26:21;;;;;;;10.50;9.60;;;;;;;16.51;84.68;99568.22;4879996;29;20591;-89
2021/08/22 02:28:56;;;;;;;11.17;10.20;;;;;;;16.53;84.74;99579.56;4880192;29;20303;-89
2021/08/22 02:31:26;;;;;;;10.50;9.60;;;;;;;16.47;84.95;99564.38;4865058;29;20235;-89
2021/08/22 02:33:57;;;;;;;11.00;10.00;;;;;;;16.46;84.76;99565.47;4850005;29;20235;-88
2021/08/22 02:36:25;;;;;;;10.77;9.87;;;;;;;16.41;84.93;99564.63;4864290;29;20291;-90
2021/08/22 02:38:53;;;;;;;11.27;10.27;;;;;;;16.43;85.05;99568.69;4864738;29;20264;-88
2021/08/22 02:41:20;;;;;;;10.87;9.97;;;;;;;16.37;84.83;99564.31;4881521;29;20235;-90
2021/08/22 02:43:47;;;;;;;11.07;9.97;;;;;;;16.37;85.03;99568.91;4868249;29;20236;-88
2021/08/22 02:46:14;;;;;;;10.80;9.97;;;;;;;16.35;85.19;99560.25;4852158;29;20291;-89
2021/08/22 02:48:41;;;;;;;10.97;10.10;;;;;;;16.27;85.21;99553.44;4853002;29;20643;-89
2021/08/22 02:51:07;;;;;;;11.23;10.27;;;;;;;16.24;85.32;99551.22;4867871;29;20295;-87
2021/08/22 02:53:34;;;;;;;11.20;10.23;;;;;;;16.27;85.34;99551.53;4883174;29;20283;-89
2021/08/22 02:56:01;;;;;;;10.60;9.80;;;;;;;16.15;85.60;99537.38;4867612;29;20232;-88
2021/08/22 02:58:28;;;;;;;10.93;9.83;;;;;;;16.15;85.46;99545.47;4883051;29;20299;-90
2021/08/22 03:00:54;;;;;;;11.27;10.17;;;;;;;16.22;85.80;99554.22;4883618;29;20234;-90
2021/08/22 03:03:21;;;;;;;11.97;10.87;;;;;;;16.21;85.86;99546.34;4868174;29;20644;-92
2021/08/22 03:05:48;;;;;;;11.17;10.27;;;;;;;16.19;85.88;99543.09;4883546;29;20327;-90
2021/08/22 03:08:17;;;;;;;11.90;10.80;;;;;;;16.24;86.06;99543.94;4882764;29;20295;-90
2021/08/22 03:10:45;;;;;;;12.30;11.10;;;;;;;16.14;86.02;99541.13;4883307;29;20240;-87
2021/08/22 03:13:12;;;;;;;11.63;10.60;;;;;;;16.17;85.94;99545.22;4883248;29;20291;-91
2021/08/22 03:15:40;;;;;;;11.13;10.13;;;;;;;16.11;86.04;99536.25;4883089;29;20612;-89
2021/08/22 03:18:07;;;;;;;11.07;10.17;;;;;;;16.11;86.07;99541.66;4851854;29;20655;-92
2021/08/22 03:20:33;;;;;;;11.87;10.87;;;;;;;16.11;86.14;99535.44;4867605;29;20246;-92
2021/08/22 03:23:00;;;;;;;10.83;9.93;;;;;;;16.05;86.07;99531.88;4883203;29;20312;-90
2021/08/22 03:25:27;;;;;;;11.50;10.50;;;;;;;16.02;86.02;99526.19;4883040;29;20231;-90
2021/08/22 03:27:54;;;;;;;11.50;10.50;;;;;;;16.04;86.25;99535.69;4882881;29;20300;-91
2021/08/22 03:30:21;;;;;;;11.13;10.10;;;;;;;15.98;86.24;99531.28;4867378;29;20267;-89
2021/08/22 03:32:47;;;;;;;11.47;10.47;;;;;;;16.00;86.39;99528.34;4898524;29;20307;-90
2021/08/22 03:35:15;;;;;;;11.43;10.47;;;;;;;16.01;85.85;99533.47;4867346;29;20242;-90
2021/08/22 03:37:41;;;;;;;11.00;10.10;;;;;;;15.96;85.98;99524.53;4867365;29;20239;-89
2021/08/22 03:40:09;;;;;;;11.23;10.33;;;;;;;15.94;86.23;99518.56;4866924;29;20239;-91
2021/08/22 03:42:38;;;;;;;11.23;10.23;;;;;;;15.92;86.12;99521.50;4882933;29;20317;-89
2021/08/22 03:45:05;;;;;;;11.97;10.97;;;;;;;15.89;86.06;99534.72;4867238;29;20264;-89
2021/08/22 03:47:32;;;;;;;11.67;10.73;;;;;;;15.85;86.21;99531.72;4882503;29;20288;-88
2021/08/22 03:49:59;;;;;;;12.13;10.80;;;;;;;15.75;86.44;99518.09;4882576;29;20243;-91
2021/08/22 03:52:26;;;;;;;11.57;10.27;;;;;;;15.69;86.58;99516.41;4881499;29;20228;-91
2021/08/22 03:54:52;;;;;;;10.97;10.03;;;;;;;15.65;86.68;99518.00;4882659;29;20235;-91
2021/08/22 03:57:19;;;;;;;11.27;9.93;;;;;;;15.71;86.31;99525.91;4866934;29;20608;-89
2021/08/22 03:59:46;;;;;;;11.70;10.50;;;;;;;15.78;86.28;99523.00;4882215;29;20259;-90
2021/08/22 04:02:13;;;;;;;10.83;9.93;;;;;;;15.80;86.47;99526.25;4866348;29;20291;-91
2021/08/22 04:05:00;;;;;;;11.80;10.40;;;;;;;15.85;86.22;99516.31;4869598;29;20643;-90
2021/08/22 04:07:29;;;;;;;10.53;9.63;;;;;;;15.78;86.38;99507.59;4881935;29;20236;-89
2021/08/22 04:09:56;;;;;;;11.00;9.90;;;;;;;15.93;86.34;99527.72;4882351;29;20230;-89
2021/08/22 04:12:23;;;;;;;10.63;9.63;;;;;;;15.94;86.04;99519.38;4866261;29;20295;-90
2021/08/22 04:14:50;;;;;;;11.20;10.20;;;;;;;16.05;85.73;99536.50;4882286;29;20271;-88
2021/08/22 04:17:17;;;;;;;10.87;9.87;;;;;;;15.94;85.59;99519.38;4881926;29;20235;-91
2021/08/22 04:19:43;;;;;;;10.87;9.97;;;;;;;16.04;85.52;99524.88;4881506;29;20680;-89
2021/08/22 04:22:11;;;;;;;10.93;9.93;;;;;;;16.13;85.32;99527.91;4881790;29;20318;-91
2021/08/22 04:24:38;;;;;;;11.00;9.90;;;;;;;16.15;84.67;99526.56;4866658;29;20235;-89
2021/08/22 04:27:05;;;;;;;10.90;9.93;;;;;;;16.24;85.17;99532.28;4881974;29;20326;-90
2021/08/22 04:29:32;;;;;;;11.13;10.13;;;;;;;16.24;84.54;99516.91;4881848;29;20316;-91
2021/08/22 04:31:59;;;;;;;10.63;9.60;;;;;;;16.26;84.65;99520.16;4866234;29;20242;-88
2021/08/22 04:34:26;;;;;;;10.80;9.90;;;;;;;16.39;84.57;99518.91;4866510;29;20357;-89
2021/08/22 04:36:53;;;;;;;11.17;10.10;;;;;;;16.54;84.04;99521.72;4862996;29;20239;-90
2021/08/22 04:39:20;;;;;;;11.60;10.60;;;;;;;16.61;83.72;99518.81;4863711;29;20236;-90
2021/08/22 04:41:47;;;;;;;10.80;9.83;;;;;;;16.79;83.54;99533.78;4848124;29;20236;-90
2021/08/22 04:44:13;;;;;;;11.33;10.30;;;;;;;16.85;83.14;99533.53;4847872;29;20240;-90
2021/08/22 04:46:41;;;;;;;10.93;10.03;;;;;;;16.99;81.93;99544.72;4848132;29;20228;-89
2021/08/22 04:49:09;;;;;;;10.77;9.87;;;;;;;17.11;82.31;99538.03;4848084;29;20255;-89
2021/08/22 04:51:36;;;;;;;10.77;9.77;;;;;;;17.20;81.52;99538.31;4863162;29;20267;-89
2021/08/22 04:54:03;;;;;;;10.50;9.60;;;;;;;17.40;81.14;99543.00;4847620;29;20256;-90
2021/08/22 04:56:29;;;;;;;11.30;9.77;;;;;;;17.51;80.76;99536.53;4863296;29;20647;-89
2021/08/22 04:58:56;;;;;;;13.13;11.97;;;;;;;17.59;80.25;99531.41;4862980;29;20267;-89
2021/08/22 05:01:23;;;;;;;12.63;11.53;;;;;;;17.80;79.79;99534.19;4847912;29;20319;-89
2021/08/22 05:03:50;;;;;;;11.30;10.23;;;;;;;17.90;79.45;99540.44;4863442;29;20683;-89
2021/08/22 05:06:17;;;;;;;10.83;9.73;;;;;;;18.05;78.57;99539.63;4862621;29;20228;-91
2021/08/22 05:08:44;;;;;;;10.13;9.30;;;;;;;18.21;77.90;99535.00;4847647;29;20325;-88
2021/08/22 05:11:10;;;;;;;10.30;9.20;;;;;;;18.35;77.06;99546.94;4847690;29;20319;-89
2021/08/22 05:13:37;;;;;;;9.90;9.00;;;;;;;18.41;76.78;99540.44;4863176;29;20364;-90
2021/08/22 05:16:05;;;;;;;9.63;8.83;;;;;;;18.55;76.27;99551.56;4847053;29;20578;-90
2021/08/22 05:18:32;;;;;;;9.20;8.40;;;;;;;18.60;75.70;99546.13;4862723;29;20252;-87
2021/08/22 05:21:00;;;;;;;8.77;8.07;;;;;;;18.73;75.29;99542.84;4847444;29;20271;-89
2021/08/22 05:23:27;;;;;;;9.23;8.50;;;;;;;18.82;74.71;99538.50;4862850;29;20267;-89
2021/08/22 05:25:53;;;;;;;9.30;8.40;;;;;;;18.93;74.40;99540.09;4862766;29;20574;-88
2021/08/22 05:28:20;;;;;;;8.60;7.90;;;;;;;19.01;74.15;99546.84;4862372;29;20728;-89
2021/08/22 05:30:47;;;;;;;8.47;7.80;;;;;;;19.11;73.74;99544.09;4847522;29;20721;-89
2021/08/22 05:33:14;;;;;;;8.07;7.27;;;;;;;19.20;73.21;99543.25;4846977;29;20256;-90
2021/08/22 05:35:41;;;;;;;8.33;7.53;;;;;;;19.22;72.67;99551.91;4847277;29;20236;-88
2021/08/22 05:38:08;;;;;;;8.17;7.47;;;;;;;19.26;72.61;99534.00;4846510;29;20264;-91
2021/08/22 05:40:35;;;;;;;8.03;7.33;;;;;;;19.39;72.49;99548.06;4832099;29;20229;-88
2021/08/22 05:43:02;;;;;;;8.97;7.60;;;;;;;19.45;72.14;99539.66;4832232;29;20253;-89
2021/08/22 05:45:29;;;;;;;8.50;6.97;;;;;;;19.48;72.29;99538.25;4847078;29;20247;-89
2021/08/22 05:47:55;;;;;;;7.80;7.10;;;;;;;19.51;72.07;99532.25;4847151;29;20240;-88
2021/08/22 05:50:22;;;;;;;7.47;6.87;;;;;;;19.71;71.44;99545.72;4846755;29;20232;-88
2021/08/22 05:52:49;;;;;;;8.27;7.57;;;;;;;19.82;71.07;99532.91;4862381;29;20560;-88
2021/08/22 05:55:16;;;;;;;7.83;7.03;;;;;;;19.94;70.72;99542.31;4862269;29;20601;-89
2021/08/22 05:57:43;;;;;;;8.03;7.23;;;;;;;20.11;70.62;99536.50;4832087;29;20300;-89
2021/08/22 06:00:10;;;;;;;8.27;7.57;;;;;;;20.26;69.72;99533.63;4846731;29;20410;-89
2021/08/22 06:02:40;;;;;;;8.40;7.60;;;;;;;20.44;68.81;99545.75;4862396;29;20236;-87
2021/08/22 06:05:08;;;;;;;7.73;6.93;;;;;;;20.54;68.82;99543.75;4847032;29;20243;-89
2021/08/22 06:07:35;;;;;;;8.17;7.37;;;;;;;20.65;68.30;99531.66;4862211;29;20238;-89
2021/08/22 06:10:06;;;;;;;8.43;7.73;;;;;;;20.75;67.53;99529.94;4831531;29;20589;-88
2021/08/22 06:12:33;;;;;;;7.73;7.13;;;;;;;20.88;67.05;99535.50;4847579;29;20625;-88
2021/08/22 06:15:01;;;;;;;10.13;7.83;;;;;;;20.99;66.97;99525.31;4862082;29;20348;-87
2021/08/22 06:17:28;;;;;;;7.67;7.07;;;;;;;21.06;66.91;99526.59;4850178;29;20243;-88
2021/08/22 06:19:55;;;;;;;8.20;7.40;;;;;;;21.27;65.99;99534.53;4850915;29;20336;-89
2021/08/22 06:22:22;;;;;;;8.30;7.50;;;;;;;21.41;66.25;99530.81;4850196;29;20245;-89
2021/08/22 06:24:48;;;;;;;8.37;7.20;;;;;;;21.53;65.05;99533.09;4850655;29;20245;-87
2021/08/22 06:27:16;;;;;;;8.03;7.33;;;;;;;21.67;65.13;99541.34;4835185;29;20790;-90
2021/08/22 06:29:43;;;;;;;7.77;7.17;;;;;;;21.73;64.68;99534.72;4865756;29;20643;-87
2021/08/22 06:32:10;;;;;;;8.20;6.93;;;;;;;21.94;64.53;99536.06;4865416;29;20731;-88
2021/08/22 06:34:37;;;;;;;7.93;7.00;;;;;;;21.95;63.64;99532.25;4850288;29;20231;-88
2021/08/22 06:37:04;;;;;;;8.33;7.33;;;;;;;22.03;62.37;99528.00;4850113;29;20261;-87
2021/08/22 06:39:31;;;;;;;7.73;7.13;;;;;;;22.18;62.39;99525.06;4850399;29;20267;-89
2021/08/22 06:41:57;;;;;;;7.97;7.27;;;;;;;22.29;62.24;99527.31;4849990;29;20295;-86
2021/08/22 06:44:24;;;;;;;7.30;6.60;;;;;;;22.45;62.17;99538.78;4865860;29;20394;-88
2021/08/22 06:46:51;;;;;;;7.97;7.27;;;;;;;22.59;62.09;99534.16;4849918;29;20546;-87
2021/08/22 06:49:18;;;;;;;7.87;7.27;;;;;;;22.55;61.47;99513.22;4849991;29;20547;-86
2021/08/22 06:51:44;;;;;;;7.67;6.83;;;;;;;22.73;61.29;99521.34;4849824;29;20605;-85
2021/08/22 06:54:11;;;;;;;7.87;7.07;;;;;;;22.89;60.73;99523.81;4849358;29;20240;-87
2021/08/22 06:56:38;;;;;;;9.77;6.90;;;;;;;23.03;60.46;99528.16;4849825;29;20232;-87
2021/08/22 06:59:04;;;;;;;7.97;7.17;;;;;;;23.03;60.54;99524.63;4864760;29;20667;-88
2021/08/22 07:01:31;;;;;;;8.17;7.23;;;;;;;23.22;60.12;99523.41;4849660;29;20345;-86
2021/08/22 07:03:58;;;;;;;7.37;6.70;;;;;;;23.23;59.13;99505.91;4864495;29;20542;-87
2021/08/22 07:06:25;;;;;;;8.77;7.50;;;;;;;23.34;58.67;99513.84;4848994;29;20271;-88
2021/08/22 07:08:52;;;;;;;7.70;7.00;;;;;;;23.38;58.46;99518.41;4849022;29;20299;-87
2021/08/22 07:11:19;;;;;;;7.83;6.50;;;;;;;23.48;58.55;99520.94;4864532;29;20236;-86
2021/08/22 07:13:46;;;;;;;6.63;5.93;;;;;;;23.73;57.85;99527.78;4864579;29;20245;-85
2021/08/22 07:16:12;;;;;;;6.80;6.20;;;;;;;23.70;54.53;99515.53;4848895;29;20250;-87
2021/08/22 07:18:40;;;;;;;6.45;5.82;;;;;;;23.87;54.25;99522.28;4849425;29;20232;-85
2021/08/22 07:21:07;;;;;;;6.82;6.25;;;;;;;23.90;53.95;99530.66;4864525;29;20546;-85
2021/08/22 07:23:34;;;;;;;7.07;6.38;;;;;;;23.84;53.89;99526.44;4864363;29;20264;-86
2021/08/22 07:26:01;;;;;;;6.60;6.00;;;;;;;23.92;54.37;99533.09;4864110;29;20251;-85
2021/08/22 07:28:28;;;;;;;7.63;6.72;;;;;;;23.92;53.50;99524.88;4879107;29;20310;-84
2021/08/22 07:30:55;;;;;;;7.40;6.80;;;;;;;23.98;53.99;99531.88;4864286;29;20289;-87
2021/08/22 07:33:22;;;;;;;7.57;6.68;;;;;;;23.88;53.88;99526.63;4848883;29;20260;-88
2021/08/22 07:35:48;;;;;;;7.07;6.38;;;;;;;24.15;54.33;99553.88;4864183;29;20315;-85
2021/08/22 07:38:15;;;;;;;7.75;7.00;;;;;;;23.89;54.18;99534.50;4848350;29;20295;-86
2021/08/22 07:40:42;;;;;;;6.88;6.35;;;;;;;23.96;54.87;99537.63;4863891;29;20224;-85
2021/08/22 07:43:08;;;;;;;7.18;6.30;;;;;;;24.06;55.25;99553.00;4848429;29;20267;-85
2021/08/22 07:45:36;;;;;;;7.15;6.55;;;;;;;24.08;53.87;99537.06;4848688;29;20326;-84
2021/08/22 07:48:03;;;;;;;6.80;6.05;;;;;;;24.30;53.89;99541.78;4863381;29;20578;-84
2021/08/22 07:50:30;;;;;;;7.05;6.10;;;;;;;24.44;53.22;99548.81;4863504;29;20295;-86
2021/08/22 07:52:57;;;;;;;7.45;6.78;;;;;;;24.37;52.84;99532.00;4878844;29;20236;-86
2021/08/22 07:55:24;;;;;;;6.80;6.30;;;;;;;24.29;53.98;99542.91;4863608;29;20236;-86
2021/08/22 07:57:52;;;;;;;7.35;6.57;;;;;;;24.25;54.93;99550.13;4863495;29;20296;-84
2021/08/22 08:00:20;;;;;;;7.03;6.22;;;;;;;24.23;54.56;99550.41;4847424;29;20314;-83
2021/08/22 08:02:47;;;;;;;6.30;5.80;;;;;;;24.49;53.24;99553.34;4863420;29;20534;-85
2021/08/22 08:05:15;;;;;;;5.60;5.10;;;;;;;24.62;53.12;99541.50;4863446;29;20230;-84
2021/08/22 08:07:42;;;;;;;6.70;5.95;;;;;;;24.75;52.47;99550.72;4847930;29;20548;-83
2021/08/22 08:10:12;;;;;;;6.90;6.20;;;;;;;24.82;51.41;99545.63;4862802;29;20247;-84
2021/08/22 08:12:39;;;;;;;6.00;5.40;;;;;;;24.92;52.03;99546.16;4862951;29;20228;-84
2021/08/22 08:15:06;;;;;;;6.93;6.07;;;;;;;24.79;52.12;99543.50;4848276;29;20629;-84
2021/08/22 08:17:32;;;;;;;6.30;5.80;;;;;;;24.95;52.37;99536.53;4848203;29;20217;-85
2021/08/22 08:20:00;;;;;;;6.90;6.30;;;;;;;24.63;52.41;99532.16;4831996;29;20232;-84
2021/08/22 08:22:27;;;;;;;6.20;5.70;;;;;;;24.69;52.28;99549.25;4847090;29;20295;-84
2021/08/22 08:24:54;;;;;;;6.30;5.80;;;;;;;24.66;53.40;99534.25;4862857;29;20244;-84
2021/08/22 08:27:22;;;;;;;6.18;5.68;;;;;;;25.02;52.53;99547.81;4863002;29;20661;-85
2021/08/22 08:29:50;;;;;;;6.05;5.20;;;;;;;25.23;52.02;99545.31;4877982;29;20236;-84
2021/08/22 08:32:17;;;;;;;5.53;5.03;;;;;;;25.37;52.37;99544.06;4877626;29;20242;-84
2021/08/22 08:34:44;;;;;;;7.55;6.25;;;;;;;25.41;51.12;99536.81;4862937;29;20243;-84
2021/08/22 08:37:11;;;;;;;5.95;5.45;;;;;;;25.28;51.93;99540.50;4847693;29;20248;-84
2021/08/22 08:39:37;;;;;;;6.10;5.47;;;;;;;25.37;51.05;99526.81;4861718;29;20243;-84
2021/08/22 08:42:15;;;;;;;5.80;4.80;;;;;;;25.66;50.41;99539.97;4846984;29;20321;-84
2021/08/22 08:44:43;;;;;;;6.60;5.13;;;;;;;25.86;49.20;99529.16;4832335;29;20231;-84
2021/08/22 08:47:13;;;;;;;5.60;5.20;;;;;;;25.91;49.63;99535.59;4862680;29;20684;-84
2021/08/22 08:49:39;;;;;;;6.80;5.40;;;;;;;25.95;50.18;99539.31;4861971;29;20235;-84
2021/08/22 08:52:27;;;;;;;5.90;5.22;;;;;;;26.03;50.43;99539.34;4891692;29;20253;-84
2021/08/22 08:55:01;;;;;;;5.78;5.20;;;;;;;25.88;49.48;99525.28;4855670;29;20270;-85
2021/08/22 08:57:31;;;;;;;5.90;5.30;;;;;;;26.23;49.97;99537.88;4847311;29;20231;-84
2021/08/22 08:59:58;;;;;;;5.78;5.28;;;;;;;26.23;50.13;99535.94;4877422;29;20244;-85
2021/08/22 09:02:24;;;;;;;6.10;5.60;;;;;;;25.79;50.73;99530.78;4862472;29;20745;-84
2021/08/22 09:04:58;;;;;;;5.88;5.38;;;;;;;25.78;50.74;99535.44;4865199;29;20229;-83
2021/08/22 09:08:08;;;;;;;7.80;6.00;;;;;;;26.14;50.26;99542.53;4874353;29;20263;-84
2021/08/22 09:10:53;;;;;;;5.72;5.18;;;;;;;26.42;49.47;99541.06;4861602;29;20233;-85
2021/08/22 09:13:41;;;;;;;5.70;5.20;;;;;;;26.08;50.17;99538.38;4861905;29;20243;-84
2021/08/22 09:16:39;;;;;;;6.65;5.60;;;;;;;26.22;49.65;99528.81;4861561;29;20288;-84
2021/08/22 09:19:43;;;;;;;5.63;5.20;;;;;;;26.59;49.65;99546.56;4866099;29;20231;-84
2021/08/22 09:22:19;;;;;;;5.57;5.07;;;;;;;27.02;47.55;99543.66;4861760;29;20236;-84
2021/08/22 09:25:23;;;;;;;5.70;5.22;;;;;;;27.27;47.27;99544.69;4861328;29;20290;-84
2021/08/22 09:28:24;;;;;;;6.68;5.30;;;;;;;27.60;45.47;99536.56;4867959;29;20230;-84
2021/08/22 09:31:29;;;;;;;5.10;4.60;;;;;;;28.21;45.04;99542.44;4862259;29;20245;-84
2021/08/22 09:34:33;;;;;;;5.75;5.25;;;;;;;28.16;46.87;99553.66;4861220;29;20243;-84
2021/08/22 09:37:12;;;;;;;7.45;5.75;;;;;;;27.62;47.88;99550.00;4875559;29;20333;-84
2021/08/22 09:40:16;;;;;;;5.72;5.22;;;;;;;27.69;48.21;99562.09;4879816;29;20337;-84
2021/08/22 09:43:11;;;;;;;7.00;5.55;;;;;;;27.93;47.85;99561.44;4894922;29;20222;-84
2021/08/22 09:46:14;;;;;;;7.05;6.10;;;;;;;27.38;48.07;99554.16;4879605;29;20539;-84
2021/08/22 09:48:58;;;;;;;6.43;5.82;;;;;;;27.19;49.14;99536.47;4859240;29;20238;-84
2021/08/22 09:51:27;;;;;;;6.18;5.68;;;;;;;27.39;49.54;99541.22;4879278;29;20564;-84
2021/08/22 09:54:28;;;;;;;7.40;6.90;;;;;;;27.36;49.41;99545.44;4866429;29;20228;-84
2021/08/22 09:57:17;;;;;;;6.57;5.97;;;;;;;27.20;48.73;99560.91;4861065;29;20236;-84
2021/08/22 10:00:21;;;;;;;6.07;5.38;;;;;;;27.50;49.16;99556.22;4889352;29;20665;-85
2021/08/22 10:03:09;;;;;;;6.18;5.60;;;;;;;27.47;48.17;99549.41;4870171;29;20296;-84
2021/08/22 10:05:54;;;;;;;5.70;5.30;;;;;;;27.70;47.01;99551.88;4860736;29;20664;-85
2021/08/22 10:08:33;;;;;;;5.68;5.20;;;;;;;27.53;47.64;99553.59;4875826;29;20633;-85
2021/08/22 10:11:02;;;;;;;5.50;4.88;;;;;;;27.59;47.85;99549.53;4869010;29;20257;-84
2021/08/22 10:13:30;;;;;;;7.05;5.47;;;;;;;27.49;47.60;99535.34;4863822;29;20238;-84
2021/08/22 10:15:56;;;;;;;7.28;6.00;;;;;;;27.29;47.70;99542.41;4848860;29;20522;-85
2021/08/22 10:18:26;;;;;;;6.32;5.72;;;;;;;27.53;47.15;99542.59;4894555;29;20242;-84
2021/08/22 10:21:02;;;;;;;5.63;5.13;;;;;;;27.99;47.57;99547.13;4894265;29;20237;-84
2021/08/22 10:23:31;;;;;;;9.93;7.15;;;;;;;27.69;48.26;99547.50;4879323;29;20589;-85
2021/08/22 10:25:59;;;;;;;8.10;6.72;;;;;;;27.88;48.00;99537.66;4879745;29;20243;-85
2021/08/22 10:28:44;;;;;;;7.93;6.43;;;;;;;28.23;47.43;99543.69;4872472;29;20239;-84
2021/08/22 10:31:12;;;;;;;6.18;5.68;;;;;;;28.31;47.63;99544.75;4859023;29;20291;-84
2021/08/22 10:34:13;;;;;;;5.82;5.32;;;;;;;28.77;48.21;99536.19;4845302;29;20240;-84
2021/08/22 10:36:41;;;;;;;6.18;5.68;;;;;;;28.83;47.14;99525.75;4858722;29;20236;-82
2021/08/22 10:39:23;;;;;;;7.72;5.82;;;;;;;28.30;46.12;99532.94;4857568;29;20315;-84
2021/08/22 10:41:53;;;;;;;6.57;5.97;;;;;;;28.82;45.81;99524.13;4857451;29;20239;-85
2021/08/22 10:44:32;;;;;;;6.72;6.13;;;;;;;28.61;46.26;99528.88;4844106;29;20324;-84
2021/08/22 10:46:59;;;;;;;6.90;6.22;;;;;;;28.55;46.56;99517.28;4845710;29;20243;-85
2021/08/22 10:49:54;;;;;;;6.20;5.60;;;;;;;28.43;48.24;99525.50;4845781;29;20252;-85
2021/08/22 10:52:25;;;;;;;6.78;6.20;;;;;;;28.51;46.27;99516.34;4860811;29;20259;-83
2021/08/22 10:55:14;;;;;;;6.95;6.10;;;;;;;28.80;46.43;99512.63;4861015;29;20255;-85
2021/08/22 10:57:45;;;;;;;6.07;5.57;;;;;;;29.47;46.11;99525.06;4845832;29;20720;-85
2021/08/22 11:00:29;;;;;;;6.93;6.32;;;;;;;29.22;45.90;99507.69;4860973;29;20248;-85
2021/08/22 11:02:58;;;;;;;6.55;6.05;;;;;;;29.48;45.64;99512.88;4862473;29;20268;-84
2021/08/22 11:05:29;;;;;;;5.80;5.35;;;;;;;30.28;44.29;99519.22;4863773;29;20264;-84
2021/08/22 11:08:03;;;;;;;6.68;6.07;;;;;;;29.96;44.44;99517.47;4848417;29;20244;-84
2021/08/22 11:10:29;;;;;;;6.25;5.75;;;;;;;29.83;44.12;99516.69;4848020;29;20600;-84
2021/08/22 11:12:56;;;;;;;7.00;6.25;;;;;;;30.15;43.51;99501.88;4863801;29;20232;-85
2021/08/22 11:15:28;;;;;;;7.28;6.60;;;;;;;30.51;42.13;99511.97;4863462;29;20240;-85
2021/08/22 11:18:00;;;;;;;6.88;6.30;;;;;;;31.00;42.14;99498.59;4863667;29;20237;-85
2021/08/22 11:20:29;;;;;;;6.63;6.03;;;;;;;31.10;40.97;99508.34;4847846;29;20236;-85
2021/08/22 11:23:08;;;;;;;6.47;5.90;;;;;;;30.82;41.67;99507.59;4878511;29;20336;-85
2021/08/22 11:25:35;;;;;;;7.47;6.78;;;;;;;30.90;41.31;99493.59;4863279;29;20232;-84
2021/08/22 11:28:18;;;;;;;7.38;6.68;;;;;;;31.45;41.49;99500.03;4847671;29;20237;-85
2021/08/22 11:30:46;;;;;;;6.10;5.50;;;;;;;31.77;39.76;99478.63;4863507;29;20224;-85
2021/08/22 11:33:13;;;;;;;5.97;5.47;;;;;;;32.05;39.33;99470.88;4832754;29;20240;-85
2021/08/22 11:35:46;;;;;;;7.60;6.90;;;;;;;31.71;39.78;99471.75;4832600;29;20263;-85
2021/08/22 11:38:17;;;;;;;7.15;6.55;;;;;;;31.09;42.05;99481.00;4848280;29;20637;-84
2021/08/22 11:40:45;;;;;;;7.05;6.43;;;;;;;30.89;40.37;99469.06;4832580;29;20625;-84
2021/08/22 11:43:13;;;;;;;6.53;5.95;;;;;;;32.14;38.68;99468.72;4832616;29;20343;-84